Time;durP1;ratioP1;P1;durP2;ratioP2;P2;SDS_P1;SDS_P2;PMS_P1;PMS_P2;Temp;Humidity;BMP_temperature;BMP_pressure;BME280_temperature;BME280_humidity;BME280_pressure;Samples;Min_cycle;Max_cycle;Signal;HPM_P1;HPM_P2
2023/08/10 00:01:53;;;;;;;5.50;5.10;;;16.60;99.90;;;;;;5047338;28;20279;-51
2023/08/10 00:04:20;;;;;;;4.53;4.07;;;16.60;99.90;;;;;;5045364;28;20683;-52
2023/08/10 00:06:48;;;;;;;4.20;4.00;;;16.60;99.90;;;;;;5041434;28;20244;-51
2023/08/10 00:09:15;;;;;;;5.47;5.07;;;16.50;99.90;;;;;;5046213;28;20234;-51
2023/08/10 00:11:42;;;;;;;4.30;4.10;;;16.50;99.90;;;;;;5044638;28;20221;-53
2023/08/10 00:14:09;;;;;;;4.43;4.13;;;16.60;99.90;;;;;;5038369;28;20286;-51
2023/08/10 00:16:36;;;;;;;6.17;4.37;;;16.60;99.90;;;;;;5042027;28;20232;-51
2023/08/10 00:19:04;;;;;;;4.23;3.93;;;16.50;99.90;;;;;;5037736;28;20198;-51
2023/08/10 00:21:31;;;;;;;4.63;4.30;;;16.50;99.90;;;;;;5040286;28;20245;-52
2023/08/10 00:23:59;;;;;;;4.17;3.87;;;16.60;99.90;;;;;;5040533;28;20198;-51
2023/08/10 00:26:27;;;;;;;4.73;4.23;;;16.50;99.90;;;;;;5044140;28;20202;-51
2023/08/10 00:28:53;;;;;;;4.23;3.93;;;16.60;99.90;;;;;;5047768;28;20202;-52
2023/08/10 00:31:21;;;;;;;4.77;4.43;;;16.60;99.90;;;;;;5048873;28;20225;-51
2023/08/10 00:33:47;;;;;;;7.87;4.47;;;16.60;99.90;;;;;;5041108;28;20272;-51
2023/08/10 00:36:15;;;;;;;4.20;3.93;;;16.60;99.90;;;;;;5045330;28;20643;-51
2023/08/10 00:38:42;;;;;;;5.30;4.67;;;16.70;99.90;;;;;;5047617;28;20205;-51
2023/08/10 00:41:11;;;;;;;6.13;4.53;;;16.70;99.90;;;;;;5049527;28;20245;-51
2023/08/10 00:43:38;;;;;;;4.37;4.17;;;16.70;99.90;;;;;;5041730;28;20581;-52
2023/08/10 00:46:06;;;;;;;4.37;4.03;;;16.70;99.90;;;;;;5045992;28;20202;-51
2023/08/10 00:48:33;;;;;;;5.60;4.30;;;16.70;99.90;;;;;;5038755;28;20198;-51
2023/08/10 00:51:00;;;;;;;4.80;4.50;;;16.70;99.90;;;;;;5043956;28;20311;-51
2023/08/10 00:53:26;;;;;;;4.03;3.60;;;16.70;99.90;;;;;;5038272;28;20364;-51
2023/08/10 00:55:54;;;;;;;3.57;3.33;;;16.60;99.90;;;;;;5044865;28;20279;-51
2023/08/10 00:58:23;;;;;;;3.90;3.60;;;16.60;99.90;;;;;;5046820;28;20210;-52
2023/08/10 01:00:50;;;;;;;3.90;3.57;;;16.60;99.90;;;;;;5035411;28;20267;-51
2023/08/10 01:03:17;;;;;;;3.77;3.57;;;16.50;99.90;;;;;;5038825;28;20225;-52
2023/08/10 01:05:53;;;;;;;3.30;3.03;;;16.50;99.90;;;;;;5038727;28;20267;-52
2023/08/10 01:08:27;;;;;;;4.10;3.80;;;16.50;99.90;;;;;;5039489;28;20202;-51
2023/08/10 01:11:03;;;;;;;3.53;3.33;;;16.50;99.90;;;;;;5048268;28;20308;-51
2023/08/10 01:13:39;;;;;;;3.80;3.50;;;16.50;99.90;;;;;;5043935;28;20630;-51
2023/08/10 01:16:09;;;;;;;4.33;3.63;;;16.40;99.90;;;;;;5038560;28;20206;-51
2023/08/10 01:18:38;;;;;;;4.27;3.87;;;16.40;99.90;;;;;;5038292;28;20251;-51
2023/08/10 01:21:15;;;;;;;3.67;3.50;;;16.40;99.90;;;;;;5041784;28;20903;-51
2023/08/10 01:23:45;;;;;;;3.53;3.17;;;16.40;99.90;;;;;;5045707;28;20730;-51
2023/08/10 01:26:13;;;;;;;3.87;3.67;;;16.40;99.90;;;;;;5045868;28;20260;-51
2023/08/10 01:28:41;;;;;;;2.77;2.40;;;16.40;99.90;;;;;;5045242;28;20344;-51
2023/08/10 01:31:08;;;;;;;2.50;2.33;;;16.40;99.90;;;;;;5038306;28;20588;-51
2023/08/10 01:33:36;;;;;;;2.47;2.33;;;16.40;99.90;;;;;;5037838;28;20271;-52
2023/08/10 01:36:04;;;;;;;2.83;2.60;;;16.40;99.90;;;;;;5047536;28;20198;-51
2023/08/10 01:38:31;;;;;;;2.70;2.60;;;16.40;99.90;;;;;;5049835;28;20206;-51
2023/08/10 01:40:58;;;;;;;3.50;3.00;;;16.40;99.90;;;;;;5040489;28;20651;-51
2023/08/10 01:43:26;;;;;;;2.67;2.57;;;16.30;99.90;;;;;;5041591;28;20198;-51
2023/08/10 01:45:56;;;;;;;3.23;2.97;;;16.40;99.90;;;;;;5048345;28;20252;-51
2023/08/10 01:48:27;;;;;;;2.80;2.70;;;16.40;99.90;;;;;;5040620;28;20282;-51
2023/08/10 01:50:57;;;;;;;2.93;2.10;;;16.40;99.90;;;;;;5050617;28;20279;-51
2023/08/10 01:53:28;;;;;;;2.40;2.30;;;16.30;99.90;;;;;;5043844;28;20218;-51
2023/08/10 01:55:55;;;;;;;2.20;2.10;;;16.30;99.90;;;;;;5048573;28;20284;-51
2023/08/10 01:58:22;;;;;;;2.50;2.40;;;16.30;99.90;;;;;;5041781;28;20260;-51
2023/08/10 02:00:51;;;;;;;4.00;2.73;;;16.30;99.90;;;;;;5046011;28;20210;-51
2023/08/10 02:03:18;;;;;;;2.43;2.07;;;16.30;99.90;;;;;;5048467;28;20194;-51
2023/08/10 02:05:45;;;;;;;2.77;2.57;;;16.30;99.90;;;;;;5043019;28;20232;-51
2023/08/10 02:08:13;;;;;;;4.00;2.50;;;16.30;99.90;;;;;;5041333;28;20199;-51
2023/08/10 02:10:39;;;;;;;2.47;2.37;;;16.30;99.90;;;;;;5041436;28;20674;-51
2023/08/10 02:13:06;;;;;;;2.93;2.27;;;16.30;99.90;;;;;;5044379;28;20751;-52
2023/08/10 02:15:33;;;;;;;2.10;2.00;;;16.30;99.90;;;;;;5052136;28;20264;-51
2023/08/10 02:18:02;;;;;;;3.53;2.37;;;16.30;99.90;;;;;;5050129;28;20545;-51
2023/08/10 02:20:29;;;;;;;3.20;2.90;;;16.30;99.90;;;;;;5040548;28;20280;-51
2023/08/10 02:22:58;;;;;;;4.40;3.80;;;16.30;99.90;;;;;;5042509;28;20219;-52
2023/08/10 02:25:25;;;;;;;3.97;2.20;;;16.40;99.90;;;;;;5050473;28;20202;-52
2023/08/10 02:27:52;;;;;;;4.40;2.97;;;16.30;99.90;;;;;;5045296;28;20197;-51
2023/08/10 02:30:20;;;;;;;7.07;3.73;;;16.40;99.90;;;;;;5049306;28;20194;-52
2023/08/10 02:32:47;;;;;;;6.50;3.60;;;16.40;99.90;;;;;;5045541;28;20229;-51
2023/08/10 02:35:16;;;;;;;3.03;2.80;;;16.30;99.90;;;;;;5042572;28;20895;-51
2023/08/10 02:37:43;;;;;;;3.43;3.17;;;16.30;99.90;;;;;;5045006;28;20194;-52
2023/08/10 02:40:12;;;;;;;4.43;2.97;;;16.30;99.90;;;;;;5048244;28;20611;-51
2023/08/10 02:42:39;;;;;;;3.03;2.70;;;16.20;99.90;;;;;;5045082;28;20279;-52
2023/08/10 02:45:07;;;;;;;3.47;2.70;;;16.20;99.90;;;;;;5041079;28;20581;-52
2023/08/10 02:47:34;;;;;;;3.77;3.40;;;16.20;99.90;;;;;;5043989;28;20294;-51
2023/08/10 02:50:02;;;;;;;3.23;3.03;;;16.10;99.90;;;;;;5042840;28;20296;-51
2023/08/10 02:52:30;;;;;;;3.57;3.27;;;16.10;99.90;;;;;;5049291;28;20229;-52
2023/08/10 02:54:57;;;;;;;2.83;2.73;;;16.10;99.90;;;;;;5043122;28;20272;-51
2023/08/10 02:57:24;;;;;;;3.63;3.20;;;16.10;99.90;;;;;;5046308;28;20255;-51
2023/08/10 02:59:51;;;;;;;3.27;3.03;;;16.10;99.90;;;;;;5045981;28;20194;-51
2023/08/10 03:02:18;;;;;;;3.27;3.00;;;16.10;99.90;;;;;;5041983;28;20214;-51
2023/08/10 03:04:45;;;;;;;4.40;3.30;;;16.00;99.90;;;;;;5041166;28;20216;-52
2023/08/10 03:07:12;;;;;;;4.07;3.03;;;16.00;99.90;;;;;;5040289;28;20248;-51
2023/08/10 03:09:41;;;;;;;3.23;3.03;;;16.00;99.90;;;;;;5040189;28;20621;-52
2023/08/10 03:12:09;;;;;;;2.80;2.70;;;16.00;99.90;;;;;;5044465;28;20217;-51
2023/08/10 03:14:36;;;;;;;4.00;3.70;;;15.90;99.90;;;;;;5044459;28;20309;-51
2023/08/10 03:17:04;;;;;;;2.97;2.87;;;15.90;99.90;;;;;;5040283;28;20276;-51
2023/08/10 03:19:31;;;;;;;2.70;2.60;;;15.80;99.90;;;;;;5040036;28;20202;-51
2023/08/10 03:21:57;;;;;;;3.30;3.00;;;15.80;99.90;;;;;;5041427;28;20219;-52
2023/08/10 03:24:24;;;;;;;3.57;3.27;;;15.70;99.90;;;;;;5052096;28;20260;-51
2023/08/10 03:26:53;;;;;;;3.53;3.33;;;15.70;99.90;;;;;;5048807;28;20252;-51
2023/08/10 03:29:20;;;;;;;3.60;3.40;;;15.70;99.90;;;;;;5046499;28;20194;-52
2023/08/10 03:31:47;;;;;;;3.43;3.17;;;15.70;99.90;;;;;;5040194;28;20284;-51
2023/08/10 03:34:14;;;;;;;3.37;3.17;;;15.60;99.90;;;;;;5046501;28;20222;-52
2023/08/10 03:36:40;;;;;;;2.83;2.63;;;15.60;99.90;;;;;;5036439;28;20203;-52
2023/08/10 03:39:07;;;;;;;3.23;3.03;;;15.60;99.90;;;;;;5043030;28;20269;-51
2023/08/10 03:41:34;;;;;;;2.57;2.47;;;15.60;99.90;;;;;;5051072;28;20222;-51
2023/08/10 03:44:03;;;;;;;6.23;4.20;;;15.50;99.90;;;;;;5042261;28;20205;-51
2023/08/10 03:46:30;;;;;;;4.77;3.90;;;15.50;99.90;;;;;;5042858;28;20206;-52
2023/08/10 03:48:57;;;;;;;5.83;4.07;;;15.60;99.90;;;;;;5041459;28;20209;-51
2023/08/10 03:51:24;;;;;;;2.83;2.73;;;15.50;99.90;;;;;;5039319;28;20291;-51
2023/08/10 03:53:50;;;;;;;3.30;3.00;;;15.50;99.90;;;;;;5039713;28;20248;-50
2023/08/10 03:56:18;;;;;;;3.23;3.03;;;15.50;99.90;;;;;;5046605;28;20201;-51
2023/08/10 03:58:45;;;;;;;3.70;3.40;;;15.40;99.90;;;;;;5041699;28;20725;-51
2023/08/10 04:01:13;;;;;;;3.47;3.17;;;15.40;99.90;;;;;;5038797;28;20218;-51
2023/08/10 04:03:40;;;;;;;3.93;3.73;;;15.40;99.90;;;;;;5042868;28;20198;-51
2023/08/10 04:06:07;;;;;;;3.73;3.50;;;15.40;99.90;;;;;;5040321;28;20203;-51
2023/08/10 04:08:34;;;;;;;3.60;3.33;;;15.30;99.90;;;;;;5045485;28;20252;-51
2023/08/10 04:11:01;;;;;;;2.70;2.50;;;15.30;99.90;;;;;;5047650;28;20218;-51
2023/08/10 04:13:27;;;;;;;2.67;2.50;;;15.20;99.90;;;;;;5042919;28;20271;-51
2023/08/10 04:15:54;;;;;;;3.73;3.53;;;15.20;99.90;;;;;;5050894;28;20229;-50
2023/08/10 04:18:23;;;;;;;3.30;3.10;;;15.20;99.90;;;;;;5049159;28;20268;-51
2023/08/10 04:20:50;;;;;;;2.70;2.50;;;15.10;99.90;;;;;;5040572;28;20560;-51
2023/08/10 04:23:19;;;;;;;3.30;3.10;;;15.00;99.90;;;;;;5036837;28;20236;-51
2023/08/10 04:25:46;;;;;;;4.20;3.93;;;15.10;99.90;;;;;;5042331;28;20267;-51
2023/08/10 04:28:15;;;;;;;2.83;2.57;;;15.00;99.90;;;;;;5043468;28;20225;-50
2023/08/10 04:30:43;;;;;;;2.83;2.73;;;15.00;99.90;;;;;;5036930;28;20206;-52
2023/08/10 04:33:10;;;;;;;4.17;3.77;;;15.00;99.90;;;;;;5043198;28;20199;-51
2023/08/10 04:35:38;;;;;;;3.90;3.60;;;15.00;99.90;;;;;;5033249;28;20726;-50
2023/08/10 04:38:05;;;;;;;2.40;2.20;;;15.00;99.90;;;;;;5031269;28;20639;-51
2023/08/10 04:40:32;;;;;;;3.07;2.97;;;15.00;99.90;;;;;;5042417;28;20202;-52
2023/08/10 04:43:00;;;;;;;4.17;3.30;;;15.00;99.90;;;;;;5038623;28;20229;-51
2023/08/10 04:45:27;;;;;;;3.33;3.17;;;15.00;99.90;;;;;;5045058;28;20197;-51
2023/08/10 04:47:55;;;;;;;4.60;4.20;;;15.10;99.90;;;;;;5051106;28;20205;-51
2023/08/10 04:50:22;;;;;;;4.03;3.73;;;15.10;99.90;;;;;;5051094;28;20225;-51
2023/08/10 04:52:50;;;;;;;3.80;3.40;;;15.20;99.90;;;;;;5050684;28;20287;-51
2023/08/10 04:55:17;;;;;;;4.13;3.80;;;15.30;99.90;;;;;;5050943;28;20221;-51
2023/08/10 04:57:44;;;;;;;4.47;4.17;;;15.50;99.90;;;;;;5051025;28;20202;-52
2023/08/10 05:00:13;;;;;;;3.93;3.63;;;15.70;99.90;;;;;;5051102;28;20270;-51
2023/08/10 05:02:40;;;;;;;4.53;4.33;;;16.00;99.90;;;;;;5050616;28;20253;-51
2023/08/10 05:05:09;;;;;;;4.37;4.10;;;16.40;99.90;;;;;;5044001;28;20504;-51
2023/08/10 05:07:37;;;;;;;5.20;4.70;;;16.80;99.90;;;;;;5034373;28;20191;-51
2023/08/10 05:10:08;;;;;;;4.07;3.53;;;17.00;99.90;;;;;;5036546;28;20575;-51
2023/08/10 05:12:37;;;;;;;5.27;4.90;;;17.40;99.90;;;;;;5039556;28;20226;-51
2023/08/10 05:15:05;;;;;;;4.10;3.80;;;18.00;99.90;;;;;;5043365;28;20218;-51
2023/08/10 05:17:32;;;;;;;3.47;3.23;;;18.70;99.90;;;;;;5035505;28;20256;-51
2023/08/10 05:19:59;;;;;;;5.33;3.30;;;19.50;99.90;;;;;;5050718;28;20641;-51
2023/08/10 05:22:26;;;;;;;4.37;3.90;;;20.30;99.90;;;;;;5051251;28;20280;-52
2023/08/10 05:24:53;;;;;;;4.10;3.23;;;20.90;99.90;;;;;;5057748;22;20219;-55
2023/08/10 05:27:22;;;;;;;2.70;2.50;;;21.40;99.90;;;;;;5003556;28;20575;-56
2023/08/10 05:29:49;;;;;;;2.63;2.43;;;21.90;99.90;;;;;;4995664;28;20208;-55
2023/08/10 05:32:16;;;;;;;2.67;2.50;;;22.40;99.90;;;;;;5013307;28;20290;-55
2023/08/10 05:34:43;;;;;;;2.00;1.90;;;22.90;99.90;;;;;;5015077;28;20709;-56
2023/08/10 05:37:10;;;;;;;3.73;2.33;;;23.30;99.90;;;;;;5015035;28;20203;-55
2023/08/10 05:39:38;;;;;;;2.93;2.73;;;23.60;99.90;;;;;;5015315;28;20211;-55
2023/08/10 05:42:05;;;;;;;2.80;2.40;;;23.60;99.90;;;;;;5014907;28;20677;-55
2023/08/10 05:44:34;;;;;;;3.17;2.97;;;23.80;99.90;;;;;;5014843;28;20215;-55
2023/08/10 05:47:01;;;;;;;2.80;2.50;;;24.10;99.90;;;;;;5014960;28;20210;-55
2023/08/10 05:49:28;;;;;;;2.93;2.40;;;24.40;99.90;;;;;;5014919;28;20207;-55
2023/08/10 05:51:55;;;;;;;5.80;5.40;;;24.70;99.90;;;;;;5014533;28;20253;-55
2023/08/10 05:54:22;;;;;;;6.77;5.90;;;25.00;99.90;;;;;;4994983;28;20231;-55
2023/08/10 05:56:49;;;;;;;5.50;4.63;;;25.40;99.90;;;;;;5009127;28;20727;-54
2023/08/10 05:59:16;;;;;;;4.73;3.93;;;25.80;99.90;;;;;;4995959;28;20199;-56
2023/08/10 06:01:45;;;;;;;3.50;3.30;;;26.10;99.90;;;;;;5006633;28;20203;-55
2023/08/10 06:04:12;;;;;;;4.17;4.00;;;26.40;99.90;;;;;;5014293;28;20219;-55
2023/08/10 06:06:39;;;;;;;3.28;3.13;;;26.60;99.90;;;;;;4998183;28;20203;-55
2023/08/10 06:09:11;;;;;;;3.00;2.80;;;26.80;99.90;;;;;;4996799;28;20219;-56
2023/08/10 06:11:38;;;;;;;3.95;3.60;;;27.30;99.90;;;;;;5006045;28;20283;-54
2023/08/10 06:14:05;;;;;;;3.50;3.30;;;27.50;99.90;;;;;;5004913;28;20278;-55
2023/08/10 06:16:32;;;;;;;4.32;3.50;;;27.10;99.90;;;;;;5005735;28;20623;-56
2023/08/10 06:19:02;;;;;;;2.80;2.60;;;27.40;99.90;;;;;;5004621;28;20210;-55
2023/08/10 06:21:29;;;;;;;3.60;3.30;;;27.60;99.90;;;;;;5004287;28;20873;-54
2023/08/10 06:23:56;;;;;;;3.90;3.60;;;28.10;99.90;;;;;;5011222;28;20199;-56
2023/08/10 06:26:23;;;;;;;2.88;2.65;;;28.20;99.90;;;;;;5012035;28;20207;-55
2023/08/10 06:28:51;;;;;;;8.55;4.20;;;28.30;99.90;;;;;;5010588;28;20290;-56
2023/08/10 06:31:18;;;;;;;3.03;2.65;;;28.40;99.90;;;;;;5010120;28;20219;-54
2023/08/10 06:33:44;;;;;;;3.30;3.10;;;28.10;99.90;;;;;;5005213;28;20215;-56
2023/08/10 06:36:13;;;;;;;6.25;4.18;;;28.70;99.90;;;;;;5001412;28;20298;-54
2023/08/10 06:38:40;;;;;;;3.85;3.55;;;29.00;99.90;;;;;;5009231;28;20207;-55
2023/08/10 06:41:07;;;;;;;2.92;2.83;;;29.50;99.90;;;;;;5012297;28;20296;-56
2023/08/10 06:43:34;;;;;;;2.95;2.60;;;29.40;99.90;;;;;;5006828;28;20204;-55
2023/08/10 06:46:01;;;;;;;2.88;2.55;;;29.50;99.90;;;;;;5005101;28;20289;-55
2023/08/10 06:48:27;;;;;;;2.22;2.13;;;28.90;99.90;;;;;;5006503;28;20716;-54
2023/08/10 06:50:54;;;;;;;1.95;1.83;;;29.20;99.90;;;;;;5009486;28;20203;-54
2023/08/10 06:53:23;;;;;;;2.17;2.08;;;29.60;99.90;;;;;;5002345;28;20207;-55
2023/08/10 06:55:50;;;;;;;3.10;2.90;;;29.40;99.90;;;;;;5009773;28;20234;-55
2023/08/10 06:58:18;;;;;;;2.85;2.65;;;29.70;99.90;;;;;;5003135;28;20290;-55
2023/08/10 07:00:45;;;;;;;3.35;3.15;;;29.80;99.90;;;;;;5011230;28;20261;-56
2023/08/10 07:03:12;;;;;;;3.50;3.40;;;29.50;99.90;;;;;;5000218;28;20250;-55
2023/08/10 07:05:39;;;;;;;3.55;3.45;;;28.70;99.90;;;;;;5007118;28;20273;-54
2023/08/10 07:08:08;;;;;;;2.83;2.63;;;28.50;99.90;;;;;;5004906;28;20210;-54
2023/08/10 07:10:36;;;;;;;3.05;2.92;;;28.30;99.90;;;;;;5003562;28;20203;-56
2023/08/10 07:13:03;;;;;;;2.88;2.78;;;28.60;99.90;;;;;;5003118;28;20196;-54
2023/08/10 07:15:32;;;;;;;3.47;3.25;;;28.80;99.90;;;;;;5006670;28;20231;-55
2023/08/10 07:18:04;;;;;;;3.78;3.58;;;28.50;99.90;;;;;;5008757;28;20207;-54
2023/08/10 07:20:31;;;;;;;3.95;3.67;;;28.80;99.90;;;;;;5001382;28;20292;-55
2023/08/10 07:23:01;;;;;;;3.85;3.65;;;28.30;99.90;;;;;;5006713;28;20245;-56
2023/08/10 07:25:28;;;;;;;2.97;2.88;;;28.70;99.90;;;;;;5008546;28;20227;-60
2023/08/10 07:27:59;;;;;;;3.88;3.58;;;28.60;99.90;;;;;;5003517;28;20294;-60
2023/08/10 07:30:26;;;;;;;4.80;4.38;;;28.90;99.90;;;;;;5001761;28;20692;-63
2023/08/10 07:32:53;;;;;;;5.97;3.63;;;28.60;99.90;;;;;;5006480;28;20620;-66
2023/08/10 07:35:21;;;;;;;3.92;3.38;;;29.00;99.90;;;;;;5002704;28;20485;-60
2023/08/10 07:37:48;;;;;;;3.90;3.60;;;29.20;99.90;;;;;;5006883;28;20205;-60
2023/08/10 07:40:15;;;;;;;2.95;2.83;;;29.60;99.90;;;;;;5011400;28;20199;-59
2023/08/10 07:42:43;;;;;;;3.05;2.78;;;30.60;99.90;;;;;;5004092;28;20204;-60
2023/08/10 07:45:11;;;;;;;2.78;2.45;;;30.70;99.90;;;;;;5000736;28;20215;-55
2023/08/10 07:47:39;;;;;;;2.58;2.40;;;30.50;99.90;;;;;;4992903;28;20203;-62
2023/08/10 07:50:07;;;;;;;2.80;2.70;;;30.10;99.90;;;;;;4993152;28;20211;-61
2023/08/10 07:52:34;;;;;;;2.50;2.40;;;30.30;99.90;;;;;;4993933;28;20208;-65
2023/08/10 07:55:01;;;;;;;2.90;2.75;;;30.30;99.90;;;;;;5001576;28;20277;-65
2023/08/10 07:57:28;;;;;;;3.13;2.58;;;30.90;99.90;;;;;;4993326;28;20199;-70
2023/08/10 07:59:56;;;;;;;2.72;2.40;;;31.00;99.90;;;;;;4992852;28;20254;-65
2023/08/10 08:02:27;;;;;;;5.57;2.33;;;30.80;99.90;;;;;;4992684;28;20204;-68
2023/08/10 08:04:54;;;;;;;2.75;2.58;;;31.00;99.90;;;;;;4992791;28;20223;-64
2023/08/10 08:07:21;;;;;;;6.78;2.63;;;31.30;99.90;;;;;;4998105;28;20211;-64
2023/08/10 08:09:48;;;;;;;2.75;2.55;;;31.10;99.90;;;;;;4999914;28;20204;-62
2023/08/10 08:12:15;;;;;;;2.05;1.88;;;31.20;99.90;;;;;;5002162;28;20261;-64
2023/08/10 08:14:43;;;;;;;2.53;2.42;;;31.50;99.90;;;;;;5010802;28;20723;-65
2023/08/10 08:17:10;;;;;;;3.17;3.08;;;31.00;99.90;;;;;;5012313;28;20227;-67
2023/08/10 08:19:38;;;;;;;3.25;2.53;;;30.40;99.90;;;;;;5012235;28;20258;-64
2023/08/10 08:22:05;;;;;;;2.08;2.08;;;29.70;99.90;;;;;;5010655;28;20195;-65
2023/08/10 08:24:32;;;;;;;2.30;2.20;;;29.40;99.90;;;;;;5003611;28;20234;-66
2023/08/10 08:26:59;;;;;;;2.35;2.25;;;29.20;99.90;;;;;;5012178;28;20261;-67
2023/08/10 08:29:26;;;;;;;3.03;2.92;;;29.20;99.90;;;;;;5012094;28;20207;-67
2023/08/10 08:31:53;;;;;;;3.17;2.05;;;29.00;99.90;;;;;;5011925;28;20677;-65
2023/08/10 08:34:20;;;;;;;2.72;2.28;;;28.20;99.90;;;;;;5011655;28;20277;-66
2023/08/10 08:36:49;;;;;;;2.22;2.00;;;28.20;99.90;;;;;;5010461;28;20257;-66
2023/08/10 08:39:16;;;;;;;3.88;2.75;;;28.00;99.90;;;;;;5000157;28;20199;-70
2023/08/10 08:41:43;;;;;;;2.63;2.42;;;28.30;99.90;;;;;;4992384;28;20664;-69
2023/08/10 08:44:10;;;;;;;1.70;1.70;;;28.90;99.90;;;;;;4992109;28;20230;-66
2023/08/10 08:46:40;;;;;;;2.70;2.53;;;29.30;99.90;;;;;;4992258;28;20629;-68
2023/08/10 08:49:08;;;;;;;2.17;1.80;;;29.80;99.90;;;;;;4992242;28;20203;-67
2023/08/10 08:51:35;;;;;;;2.40;2.20;;;30.20;99.90;;;;;;4995924;28;20207;-65
2023/08/10 08:54:04;;;;;;;2.08;1.90;;;29.90;99.90;;;;;;4999810;28;20203;-67
2023/08/10 08:56:32;;;;;;;2.30;2.10;;;29.30;99.90;;;;;;4992148;28;20270;-66
2023/08/10 08:58:59;;;;;;;2.47;2.33;;;29.00;99.90;;;;;;4997753;28;20199;-67
2023/08/10 09:01:27;;;;;;;2.25;2.25;;;28.60;99.90;;;;;;5007442;28;20246;-69
2023/08/10 09:03:54;;;;;;;2.60;2.47;;;28.40;99.90;;;;;;5015253;28;20202;-57
2023/08/10 09:06:21;;;;;;;4.97;3.28;;;27.70;99.90;;;;;;5014274;28;20669;-61
2023/08/10 09:08:48;;;;;;;6.00;4.00;;;27.40;99.90;;;;;;5006616;28;20617;-67
2023/08/10 09:11:16;;;;;;;4.63;4.22;;;26.90;99.90;;;;;;4995869;28;20250;-66
2023/08/10 09:13:43;;;;;;;4.32;3.80;;;26.60;99.90;;;;;;4995548;28;20222;-63
2023/08/10 09:16:12;;;;;;;3.40;3.30;;;26.40;99.90;;;;;;4995598;28;20220;-67
2023/08/10 09:18:41;;;;;;;3.97;3.50;;;26.30;99.90;;;;;;4996014;28;20628;-66
2023/08/10 09:21:13;;;;;;;4.50;4.10;;;26.10;99.90;;;;;;4997784;28;20250;-67
2023/08/10 09:23:41;;;;;;;6.63;4.50;;;25.90;99.90;;;;;;5006860;28;20281;-65
2023/08/10 09:26:09;;;;;;;4.83;3.60;;;26.10;99.90;;;;;;4995420;28;20306;-62
2023/08/10 09:28:38;;;;;;;4.07;3.77;;;26.30;99.90;;;;;;4995385;28;20266;-63
2023/08/10 09:31:07;;;;;;;4.13;3.70;;;26.50;99.90;;;;;;4995690;28;20281;-64
2023/08/10 09:33:35;;;;;;;8.10;4.53;;;26.80;99.90;;;;;;4995199;28;20207;-62
2023/08/10 09:36:03;;;;;;;4.10;3.78;;;26.90;99.90;;;;;;4998525;28;20235;-62
2023/08/10 09:38:30;;;;;;;4.50;4.20;;;27.30;99.90;;;;;;5008463;28;20238;-64
2023/08/10 09:41:11;;;;;;;4.70;4.15;;;27.90;99.90;;;;;;5013647;28;20249;-65
2023/08/10 09:43:39;;;;;;;4.57;4.28;;;28.50;99.90;;;;;;5005856;28;20257;-65
2023/08/10 09:46:07;;;;;;;5.32;4.85;;;28.60;99.90;;;;;;4995483;28;20216;-57
2023/08/10 09:48:38;;;;;;;5.03;4.53;;;28.50;99.90;;;;;;4995300;28;20200;-62
2023/08/10 09:51:06;;;;;;;3.45;3.25;;;29.40;99.90;;;;;;5000730;28;20250;-65
2023/08/10 09:53:34;;;;;;;3.75;3.42;;;30.20;99.90;;;;;;5006753;28;20208;-65
2023/08/10 09:56:01;;;;;;;3.10;3.00;;;30.40;99.90;;;;;;5013889;28;20219;-64
2023/08/10 09:58:30;;;;;;;3.75;3.60;;;30.90;99.90;;;;;;5014682;28;20261;-66
2023/08/10 10:00:59;;;;;;;3.60;3.30;;;30.90;99.90;;;;;;5014670;28;20203;-67
2023/08/10 10:03:29;;;;;;;3.75;3.45;;;30.10;99.90;;;;;;5003775;28;20214;-69
2023/08/10 10:05:57;;;;;;;3.22;3.00;;;30.00;99.90;;;;;;5006179;28;20254;-66
2023/08/10 10:08:25;;;;;;;3.20;3.10;;;30.00;99.90;;;;;;5014229;28;20773;-66
2023/08/10 10:10:55;;;;;;;3.72;2.97;;;30.10;99.90;;;;;;5005349;28;20635;-56
2023/08/10 10:13:23;;;;;;;3.47;3.33;;;30.60;99.90;;;;;;5007271;28;20698;-64
2023/08/10 10:15:51;;;;;;;3.08;2.97;;;30.80;99.90;;;;;;5014220;28;20242;-63
2023/08/10 10:18:19;;;;;;;3.00;2.88;;;30.90;99.90;;;;;;5013432;28;20199;-63
2023/08/10 10:20:47;;;;;;;2.90;2.65;;;30.90;99.90;;;;;;5003579;28;20195;-63
2023/08/10 10:23:16;;;;;;;2.90;2.70;;;30.60;99.90;;;;;;4994217;28;20235;-69
2023/08/10 10:25:57;;;;;;;2.72;2.50;;;30.80;99.90;;;;;;5009894;28;20261;-68
2023/08/10 10:28:26;;;;;;;4.15;2.92;;;31.50;99.90;;;;;;5003529;28;20203;-69
2023/08/10 10:30:57;;;;;;;1.95;1.83;;;31.40;99.90;;;;;;5003963;28;20206;-69
2023/08/10 10:33:25;;;;;;;1.92;1.83;;;31.80;99.90;;;;;;4994476;28;20211;-56
2023/08/10 10:36:20;;;;;;;2.17;1.55;;;31.90;99.90;;;;;;4994219;28;20749;-57
2023/08/10 10:38:49;;;;;;;2.08;1.92;;;31.30;99.90;;;;;;4948609;28;20286;-57
2023/08/10 10:41:18;;;;;;;1.70;1.48;;;31.30;99.90;;;;;;4997657;28;20218;-58
2023/08/10 10:43:45;;;;;;;1.45;1.45;;;31.50;99.90;;;;;;5004862;28;20259;-57
2023/08/10 10:46:44;;;;;;;1.80;1.70;;;30.60;99.90;;;;;;5001680;28;20219;-57
2023/08/10 10:49:20;;;;;;;1.60;1.52;;;31.00;99.90;;;;;;4994253;28;20208;-62
2023/08/10 10:51:57;;;;;;;3.25;2.05;;;31.30;99.90;;;;;;4996203;28;20249;-64
2023/08/10 10:54:25;;;;;;;3.28;2.08;;;31.20;99.90;;;;;;5000486;28;20672;-64
2023/08/10 10:56:52;;;;;;;1.75;1.65;;;31.10;99.90;;;;;;5010227;28;20227;-64
2023/08/10 10:59:20;;;;;;;1.63;1.52;;;30.50;99.90;;;;;;4994286;28;20204;-64
2023/08/10 11:01:48;;;;;;;2.00;1.63;;;30.50;99.90;;;;;;5008266;28;20208;-63
2023/08/10 11:04:16;;;;;;;2.25;2.08;;;30.10;99.90;;;;;;5000003;28;20310;-67
2023/08/10 11:06:44;;;;;;;1.60;1.48;;;29.70;99.90;;;;;;4996494;28;20196;-69
2023/08/10 11:09:13;;;;;;;1.23;1.23;;;29.30;99.90;;;;;;5010748;28;20199;-70
2023/08/10 11:11:40;;;;;;;2.08;1.65;;;28.80;99.90;;;;;;4997709;28;20226;-69
2023/08/10 11:14:07;;;;;;;2.85;1.55;;;28.50;99.90;;;;;;4993402;28;20738;-71
2023/08/10 11:16:41;;;;;;;2.75;1.40;;;28.50;99.90;;;;;;5007013;28;20231;-69
2023/08/10 11:19:11;;;;;;;1.88;1.80;;;28.60;99.90;;;;;;5013202;28;20612;-69
2023/08/10 11:21:45;;;;;;;1.70;1.60;;;28.60;99.90;;;;;;5004670;28;20673;-66
2023/08/10 11:24:12;;;;;;;1.50;1.50;;;28.70;99.90;;;;;;4999856;28;20684;-65
2023/08/10 11:26:39;;;;;;;1.35;1.33;;;28.70;99.90;;;;;;5071883;22;20218;-50
2023/08/10 11:29:06;;;;;;;1.40;1.35;;;28.70;99.90;;;;;;5019368;28;20222;-49
2023/08/10 11:31:40;;;;;;;1.70;1.58;;;28.40;99.90;;;;;;5016033;28;20198;-50
2023/08/10 11:34:21;;;;;;;1.58;1.35;;;28.50;99.90;;;;;;5017704;28;20206;-50
2023/08/10 11:36:50;;;;;;;1.83;1.10;;;28.10;99.90;;;;;;5030322;28;20437;-50
2023/08/10 11:39:17;;;;;;;3.80;1.10;;;28.00;99.90;;;;;;5012272;28;20207;-50
2023/08/10 11:41:46;;;;;;;3.50;1.50;;;27.40;99.90;;;;;;5010239;28;20786;-50
2023/08/10 11:44:23;;;;;;;1.35;1.25;;;27.20;99.90;;;;;;5006849;28;20195;-50
2023/08/10 11:46:50;;;;;;;1.48;1.38;;;27.10;99.90;;;;;;5012324;28;20211;-50
2023/08/10 11:49:17;;;;;;;1.77;1.30;;;27.20;99.90;;;;;;5011098;28;20203;-49
2023/08/10 11:51:44;;;;;;;1.30;1.15;;;27.20;99.90;;;;;;5009921;28;20661;-50
2023/08/10 11:54:13;;;;;;;1.10;1.10;;;26.90;99.90;;;;;;5007833;28;20191;-50
2023/08/10 11:56:46;;;;;;;1.52;1.50;;;26.60;99.90;;;;;;5011338;28;20219;-50
2023/08/10 11:59:14;;;;;;;2.17;1.20;;;26.40;99.90;;;;;;5011968;28;20203;-50
2023/08/10 12:01:47;;;;;;;2.13;1.57;;;26.40;99.90;;;;;;5012037;28;20370;-49
2023/08/10 12:04:15;;;;;;;1.90;1.00;;;26.30;99.90;;;;;;5018200;28;20631;-50
2023/08/10 12:06:42;;;;;;;2.60;1.87;;;26.10;99.90;;;;;;5021815;28;20380;-50
2023/08/10 12:09:13;;;;;;;1.13;1.13;;;26.20;99.90;;;;;;5011752;28;20226;-50
2023/08/10 12:11:47;;;;;;;1.30;1.17;;;26.00;99.90;;;;;;4992290;28;20246;-50
2023/08/10 12:14:14;;;;;;;0.93;0.90;;;25.90;99.90;;;;;;4998214;28;20290;-50
2023/08/10 12:16:41;;;;;;;0.80;0.80;;;26.00;99.90;;;;;;5011222;28;20223;-50
2023/08/10 12:19:08;;;;;;;1.93;1.33;;;25.90;99.90;;;;;;5011546;28;20207;-50
2023/08/10 12:21:35;;;;;;;0.80;0.80;;;25.90;99.90;;;;;;5008120;28;20570;-49
2023/08/10 12:24:02;;;;;;;1.50;1.00;;;25.80;99.90;;;;;;5007336;28;20213;-49
2023/08/10 12:26:29;;;;;;;3.53;1.67;;;25.80;99.90;;;;;;5005080;28;20231;-49
2023/08/10 12:28:58;;;;;;;2.50;1.40;;;25.70;99.90;;;;;;5021214;28;20245;-49
2023/08/10 12:31:25;;;;;;;1.27;1.17;;;25.40;99.90;;;;;;5031248;28;20209;-50
2023/08/10 12:33:55;;;;;;;1.00;1.00;;;25.40;99.90;;;;;;5017827;28;20287;-50
2023/08/10 12:36:22;;;;;;;1.13;1.13;;;25.40;99.90;;;;;;5011480;28;20304;-50
2023/08/10 12:38:49;;;;;;;1.13;1.00;;;25.50;99.90;;;;;;5011683;28;20203;-50
2023/08/10 12:41:16;;;;;;;1.50;1.00;;;25.60;99.90;;;;;;5013181;28;20198;-50
2023/08/10 12:43:43;;;;;;;2.40;0.97;;;25.70;99.90;;;;;;5021515;28;20584;-51
2023/08/10 12:46:11;;;;;;;1.00;1.00;;;25.70;99.90;;;;;;5029611;28;20242;-51
2023/08/10 12:48:38;;;;;;;1.23;1.23;;;25.70;99.90;;;;;;5011496;28;20289;-51
2023/08/10 12:51:07;;;;;;;1.03;1.03;;;25.70;99.90;;;;;;5011457;28;20751;-50
2023/08/10 12:53:34;;;;;;;0.87;0.83;;;25.80;99.90;;;;;;5011359;28;20210;-50